My Meet Scores
Hailey Nass, Phenom Gymnastics - MyMeetScores.com
Top100 | Top Teams | Upcoming Meets | Completed Meets | Latest | Add Scores | Help| Support | Bookmark and Share

Hailey Nass, Phenom Gymnastics
Personal Bests
LevelVault BarsBeamFloorAA
39.6259.650 9.4509.55037.850
49.5509.800 9.5759.22537.850
59.1759.325 8.5759.15035.650
79.3008.050 8.8759.25034.900
Scores on America's Top 100as of 09.29.2022
Year Level Vault Bars Beam Floor AA
2020 49.800

Click here to view our exclusive Top 100 Collection
Meet Scores
Date Meet Team Session Level Division Vault Bars Beam Floor AA
2022-03-04 2022 Flip'r S.O.U.L. Invitational Phenom Gymnastics 3 7 JR B 8.850 9 8.050 12 8.875 6 9.125 14 34.900 9
2022-02-18 BIG Classic 2022 Phenom Gymnastics 3A 7 Junior C 8.300 13T 6.650 13 8.375 12 9.050 11T 32.375 12
2022-01-21 King Arthur Invitational 2022 Phenom Gymnastics 8 7 Sr A 9.300 4T 7.550 15 7.700 17 9.225 5T 33.775 15
2022-01-14 2022 Bravo Classic Phenom Gymnastics 10B 7 Sr 9.000 8T 6.150 11 8.025 12 9.250 8T 32.425 9
2021-12-17 Aspire Classic 2021 Phenom Gymnastics 1 7 Middle 8.750 14 7.275 18 8.575 15 9.200 11 33.800 15
2021-03-18 Level 5 & Xcel Gold State Phenom Gymnastics 3 5 Sr C 9.175 16 9.325 8 8.000 21 9.150 10T 35.650 16
2021-02-26 Kinetic Classic 2021 Phenom Gymnastics 11 5 Older 8.850 15 9.225 12 8.150 17 8.875 15T 35.100 14
2021-02-12 Super Girl Invite Phenom Gymnastics 2 5 Older 0.000 15 8.800 13 0.000 15 0.000 15 8.800 15
2020-12-11 Crossroad Classic 2020 Phenom Gymnastics 6 5 Senior 9.000 3 9.125 4 8.575 6 8.400 5 35.100 4
2020-03-06 Illinois Level 4 State Championships Phenom Gymnastics 7 4 Sr D 9.550 2T 9.725 2T 9.575 2T 9.000 16 37.850 4
2020-02-21 Kinetic Classic Phenom Gymnastics 07 4 Older 9.200 8T 9.800 2T 9.275 11T 9.225 14T 37.500 6
2020-02-14 Big Classic Phenom Gymnastics 6B 4 Child E 9.000 23T 9.450 9T 8.950 41 9.125 26T 36.525 21T
2020-01-31 Big Chill Phenom Gymnastics 2 4 11+ 8.625 7 9.525 1 9.550 3T 8.625 9 36.325 3
2020-01-17 2020 Bravo Classic Phenom Gymnastics 10B 4 Sr 9.100 2 9.700 1 8.950 11 8.450 17 36.200 4
2019-12-20 Aspire Classic - 2019 Phenom Gymnastics 8A 4 Older 8.425 14 9.300 4 9.325 13 9.150 6 36.200 8
2019-12-13 MEGA Magic Classic 2019 Phenom Gymnastics 3B 4 Sr A 8.900 8T 9.425 1 8.925 5T 8.525 17 35.775 5
2019-03-08 2019 Illinois Level 3 State Championship Phenom Gymnastics 1 3 Sr C 9.625 1T 9.500 10 9.075 6 9.400 6 37.600 4T
2019-02-23 Kinetic Classic 2019 Phenom Gymnastics 1 3 Older 9.250 12 8.625 43 9.350 8T 8.850 27T 36.075 25
2019-02-15 Big ClassicBIG CLASSIC Phenom Gymnastics 3A 3 Child E 9.325 1 9.125 4 9.150 6 9.375 5 36.975 4
2019-01-25 King Arthur Invitational Phenom Gymnastics 8 3 SR B 9.600 6T 9.650 4 9.250 7T 8.900 11 37.400 5
2019-01-18 2019 Bravo Classic Phenom Gymnastics 8B 3 Sr 9.525 1 8.900 14 9.450 2T 9.225 7 37.100 5
2018-12-14 2018 Aspire Classic Phenom Gymnastics 2 3 Sr B 9.350 6T 9.275 10T 9.150 7T 9.050 12 36.825 8
2018-12-07 Horton Invite Phenom Gymnastics All 3 Sr A 9.400 3 9.475 3 9.425 3 9.550 5 37.850 3T
2018-05-03 Illinois USA Gymnastics Level 3 State Championships Phenom Gymnastics 2 3 Jr E 9.475 11T 9.350 7T 8.500 25 0.000 27 27.325 27
2018-02-16 Big Classic Phenom Gymnastics 6B 3 Child C 9.225 3T 9.450 5 9.200 5 9.025 10 36.900 6
2018-01-19 2018 Bravo Classic Phenom Gymnastics 8B 3 Sr 9.475 6T 9.525 6 9.225 9T 8.900 15 37.125 7
2017-12-15 2017 Aspire Classic Phenom Gymnastics 11A 3 Older 9.525 8 8.950 21 8.775 18T 9.100 19 36.350 18
2017-12-08 Horton Invite At IWU Shirk Center Phenom Gymnastics All 3 Jr A 9.225 10 9.500 1 8.900 8 8.775 7 36.400 5
2017-11-16 Paul Hamm Thanksgiving Classic - Women Phenom Gymnastics 5 3 Older 9.350 11T 8.900 15 8.350 18 8.650 17 35.250 17
Get your scores on
a t-shirt, pin, or hoodie